sensor_id;sensor_type;location;lat;lon;timestamp;pressure;altitude;pressure_sealevel;temperature;humidity
74045;BME280;62389;51.412;5.436;2023-05-16T00:00:04;101770.53;;;10.36;76.90
74045;BME280;62389;51.412;5.436;2023-05-16T00:02:34;101764.50;;;10.33;76.72
74045;BME280;62389;51.412;5.436;2023-05-16T00:05:01;101770.72;;;10.30;76.32
74045;BME280;62389;51.412;5.436;2023-05-16T00:07:26;101776.13;;;10.24;75.72
74045;BME280;62389;51.412;5.436;2023-05-16T00:09:51;101771.78;;;10.22;75.94
74045;BME280;62389;51.412;5.436;2023-05-16T00:12:17;101772.75;;;10.18;77.14
74045;BME280;62389;51.412;5.436;2023-05-16T00:14:43;101767.63;;;10.15;76.76
74045;BME280;62389;51.412;5.436;2023-05-16T00:17:09;101779.91;;;10.11;76.92
74045;BME280;62389;51.412;5.436;2023-05-16T00:19:37;101779.06;;;10.09;76.58
74045;BME280;62389;51.412;5.436;2023-05-16T00:22:04;101775.59;;;10.08;76.44
74045;BME280;62389;51.412;5.436;2023-05-16T00:24:29;101773.03;;;10.07;76.48
74045;BME280;62389;51.412;5.436;2023-05-16T00:26:55;101775.72;;;10.04;76.28
74045;BME280;62389;51.412;5.436;2023-05-16T00:29:20;101769.69;;;10.02;76.86
74045;BME280;62389;51.412;5.436;2023-05-16T00:31:48;101779.34;;;10.00;76.54
74045;BME280;62389;51.412;5.436;2023-05-16T00:34:14;101775.00;;;9.99;76.24
74045;BME280;62389;51.412;5.436;2023-05-16T00:36:39;101768.97;;;9.97;76.45
74045;BME280;62389;51.412;5.436;2023-05-16T00:39:04;101776.81;;;9.97;76.35
74045;BME280;62389;51.412;5.436;2023-05-16T00:41:30;101772.53;;;9.93;76.14
74045;BME280;62389;51.412;5.436;2023-05-16T00:43:55;101779.53;;;9.92;76.40
74045;BME280;62389;51.412;5.436;2023-05-16T00:46:21;101777.09;;;9.86;75.53
74045;BME280;62389;51.412;5.436;2023-05-16T00:48:46;101783.28;;;9.82;75.78
74045;BME280;62389;51.412;5.436;2023-05-16T00:51:12;101780.72;;;9.80;76.29
74045;BME280;62389;51.412;5.436;2023-05-16T00:53:37;101780.75;;;9.79;76.57
74045;BME280;62389;51.412;5.436;2023-05-16T00:56:04;101787.81;;;9.75;75.87
74045;BME280;62389;51.412;5.436;2023-05-16T00:58:31;101782.66;;;9.72;75.62
74045;BME280;62389;51.412;5.436;2023-05-16T01:00:57;101780.00;;;9.74;75.63
74045;BME280;62389;51.412;5.436;2023-05-16T01:03:23;101782.81;;;9.66;75.51
74045;BME280;62389;51.412;5.436;2023-05-16T01:05:48;101794.22;;;9.62;76.38
74045;BME280;62389;51.412;5.436;2023-05-16T01:08:14;101789.97;;;9.58;76.40
74045;BME280;62389;51.412;5.436;2023-05-16T01:10:49;101790.13;;;9.52;76.44
74045;BME280;62389;51.412;5.436;2023-05-16T01:13:25;101800.72;;;9.46;76.79
74045;BME280;62389;51.412;5.436;2023-05-16T01:16:04;101793.03;;;9.40;75.93
74045;BME280;62389;51.412;5.436;2023-05-16T01:22:10;101799.25;;;9.34;76.66
74045;BME280;62389;51.412;5.436;2023-05-16T01:24:12;101797.56;;;9.31;76.35
74045;BME280;62389;51.412;5.436;2023-05-16T01:26:40;101797.56;;;9.31;76.16
74045;BME280;62389;51.412;5.436;2023-05-16T01:29:06;101791.59;;;9.26;76.90
74045;BME280;62389;51.412;5.436;2023-05-16T01:31:31;101796.06;;;9.21;76.40
74045;BME280;62389;51.412;5.436;2023-05-16T01:33:57;101799.63;;;9.17;76.50
74045;BME280;62389;51.412;5.436;2023-05-16T01:36:47;101796.25;;;9.12;76.22
74045;BME280;62389;51.412;5.436;2023-05-16T01:39:26;101802.47;;;9.06;77.18
74045;BME280;62389;51.412;5.436;2023-05-16T01:42:09;101801.69;;;9.03;77.14
74045;BME280;62389;51.412;5.436;2023-05-16T01:47:11;101804.44;;;8.97;76.93
74045;BME280;62389;51.412;5.436;2023-05-16T01:49:48;101797.56;;;8.93;76.88
74045;BME280;62389;51.412;5.436;2023-05-16T01:52:19;101805.53;;;8.87;76.75
74045;BME280;62389;51.412;5.436;2023-05-16T01:54:49;101814.28;;;8.82;76.50
74045;BME280;62389;51.412;5.436;2023-05-16T01:57:16;101810.88;;;8.80;76.81
74045;BME280;62389;51.412;5.436;2023-05-16T01:59:43;101817.84;;;8.78;76.97
74045;BME280;62389;51.412;5.436;2023-05-16T02:02:09;101826.66;;;8.74;77.00
74045;BME280;62389;51.412;5.436;2023-05-16T02:04:35;101819.78;;;8.70;76.82
74045;BME280;62389;51.412;5.436;2023-05-16T02:07:00;101813.75;;;8.67;78.41
74045;BME280;62389;51.412;5.436;2023-05-16T02:09:26;101821.66;;;8.62;77.20
74045;BME280;62389;51.412;5.436;2023-05-16T02:11:51;101820.84;;;8.60;76.45
74045;BME280;62389;51.412;5.436;2023-05-16T02:14:17;101817.44;;;8.56;77.67
74045;BME280;62389;51.412;5.436;2023-05-16T02:16:42;101821.84;;;8.54;78.17
74045;BME280;62389;51.412;5.436;2023-05-16T02:19:08;101820.97;;;8.54;77.14
74045;BME280;62389;51.412;5.436;2023-05-16T02:21:33;101824.44;;;8.54;77.25
74045;BME280;62389;51.412;5.436;2023-05-16T02:23:59;101821.00;;;8.52;77.54
74045;BME280;62389;51.412;5.436;2023-05-16T02:26:24;101821.91;;;8.50;77.01
74045;BME280;62389;51.412;5.436;2023-05-16T02:28:49;101818.47;;;8.48;77.70
74045;BME280;62389;51.412;5.436;2023-05-16T02:31:31;101827.22;;;8.45;77.27
74045;BME280;62389;51.412;5.436;2023-05-16T02:33:57;101831.66;;;8.40;77.68
74045;BME280;62389;51.412;5.436;2023-05-16T02:36:23;101829.09;;;8.36;77.45
74045;BME280;62389;51.412;5.436;2023-05-16T02:38:49;101838.69;;;8.35;77.93
74045;BME280;62389;51.412;5.436;2023-05-16T02:41:14;101837.81;;;8.35;77.22
74045;BME280;62389;51.412;5.436;2023-05-16T02:43:39;101840.44;;;8.33;78.10
74045;BME280;62389;51.412;5.436;2023-05-16T02:46:18;101838.81;;;8.27;77.95
74045;BME280;62389;51.412;5.436;2023-05-16T02:48:44;101842.34;;;8.25;78.43
74045;BME280;62389;51.412;5.436;2023-05-16T02:51:09;101851.06;;;8.24;77.99
74045;BME280;62389;51.412;5.436;2023-05-16T02:53:36;101855.41;;;8.23;77.38
74045;BME280;62389;51.412;5.436;2023-05-16T02:56:01;101854.56;;;8.21;78.18
74045;BME280;62389;51.412;5.436;2023-05-16T02:58:26;101858.94;;;8.19;78.45
74045;BME280;62389;51.412;5.436;2023-05-16T03:00:52;101863.31;;;8.17;77.62
74045;BME280;62389;51.412;5.436;2023-05-16T03:03:17;101868.56;;;8.16;77.98
74045;BME280;62389;51.412;5.436;2023-05-16T03:05:42;101869.44;;;8.13;78.40
74045;BME280;62389;51.412;5.436;2023-05-16T03:08:08;101865.16;;;8.11;78.00
74045;BME280;62389;51.412;5.436;2023-05-16T03:10:33;101872.16;;;8.09;77.76
74045;BME280;62389;51.412;5.436;2023-05-16T03:12:58;101872.16;;;8.09;78.59
74045;BME280;62389;51.412;5.436;2023-05-16T03:15:24;101877.41;;;8.05;78.85
74045;BME280;62389;51.412;5.436;2023-05-16T03:17:50;101881.81;;;8.02;79.07
74045;BME280;62389;51.412;5.436;2023-05-16T03:20:15;101881.03;;;7.98;79.33
74045;BME280;62389;51.412;5.436;2023-05-16T03:22:40;101871.50;;;7.96;80.02
74045;BME280;62389;51.412;5.436;2023-05-16T03:25:06;101880.19;;;7.95;79.35
74045;BME280;62389;51.412;5.436;2023-05-16T03:27:32;101878.50;;;7.94;79.27
74045;BME280;62389;51.412;5.436;2023-05-16T03:29:57;101878.50;;;7.92;79.41
74045;BME280;62389;51.412;5.436;2023-05-16T03:32:22;101877.63;;;7.92;78.74
74045;BME280;62389;51.412;5.436;2023-05-16T03:34:48;101887.16;;;7.93;78.73
74045;BME280;62389;51.412;5.436;2023-05-16T03:37:13;101879.41;;;7.90;79.64
74045;BME280;62389;51.412;5.436;2023-05-16T03:39:40;101887.25;;;7.88;79.66
74045;BME280;62389;51.412;5.436;2023-05-16T03:42:05;101895.91;;;7.90;79.47
74045;BME280;62389;51.412;5.436;2023-05-16T03:44:31;101895.84;;;7.95;79.17
74045;BME280;62389;51.412;5.436;2023-05-16T03:46:57;101904.47;;;7.97;79.30
74045;BME280;62389;51.412;5.436;2023-05-16T03:49:25;101898.38;;;7.98;78.90
74045;BME280;62389;51.412;5.436;2023-05-16T03:51:53;101900.19;;;7.94;78.84
74045;BME280;62389;51.412;5.436;2023-05-16T03:54:20;101900.22;;;7.91;79.50
74045;BME280;62389;51.412;5.436;2023-05-16T03:56:45;101901.16;;;7.87;79.72
74045;BME280;62389;51.412;5.436;2023-05-16T03:59:10;101909.88;;;7.85;80.32
74045;BME280;62389;51.412;5.436;2023-05-16T04:01:36;101907.31;;;7.82;80.60
74045;BME280;62389;51.412;5.436;2023-05-16T04:04:01;101903.88;;;7.78;80.18
74045;BME280;62389;51.412;5.436;2023-05-16T04:06:27;101901.31;;;7.76;80.04
74045;BME280;62389;51.412;5.436;2023-05-16T04:08:52;101912.59;;;7.77;80.09
74045;BME280;62389;51.412;5.436;2023-05-16T04:11:17;101910.03;;;7.75;80.75
74045;BME280;62389;51.412;5.436;2023-05-16T04:13:43;101907.41;;;7.75;80.35
74045;BME280;62389;51.412;5.436;2023-05-16T04:16:08;101920.44;;;7.75;80.05
74045;BME280;62389;51.412;5.436;2023-05-16T04:18:33;101910.88;;;7.76;80.69
74045;BME280;62389;51.412;5.436;2023-05-16T04:20:59;101911.81;;;7.73;80.13
74045;BME280;62389;51.412;5.436;2023-05-16T04:23:24;101914.41;;;7.72;81.02
74045;BME280;62389;51.412;5.436;2023-05-16T04:25:50;101922.22;;;7.72;81.04
74045;BME280;62389;51.412;5.436;2023-05-16T04:28:15;101921.34;;;7.71;81.20
74045;BME280;62389;51.412;5.436;2023-05-16T04:30:40;101920.47;;;7.72;80.66
74045;BME280;62389;51.412;5.436;2023-05-16T04:33:06;101919.63;;;7.72;80.67
74045;BME280;62389;51.412;5.436;2023-05-16T04:35:31;101924.84;;;7.70;80.08
74045;BME280;62389;51.412;5.436;2023-05-16T04:37:57;101929.22;;;7.68;81.11
74045;BME280;62389;51.412;5.436;2023-05-16T04:40:23;101934.44;;;7.68;80.21
74045;BME280;62389;51.412;5.436;2023-05-16T04:42:49;101937.03;;;7.68;80.89
74045;BME280;62389;51.412;5.436;2023-05-16T04:45:15;101944.84;;;7.68;82.00
74045;BME280;62389;51.412;5.436;2023-05-16T04:47:40;101942.25;;;7.68;80.92
74045;BME280;62389;51.412;5.436;2023-05-16T04:50:07;101947.44;;;7.70;80.86
74045;BME280;62389;51.412;5.436;2023-05-16T04:52:33;101949.13;;;7.72;80.70
74045;BME280;62389;51.412;5.436;2023-05-16T04:54:59;101953.41;;;7.76;81.79
74045;BME280;62389;51.412;5.436;2023-05-16T04:57:25;101951.66;;;7.78;81.11
74045;BME280;62389;51.412;5.436;2023-05-16T04:59:51;101954.22;;;7.80;81.49
74045;BME280;62389;51.412;5.436;2023-05-16T05:02:17;101952.44;;;7.82;80.68
74045;BME280;62389;51.412;5.436;2023-05-16T05:04:42;101956.81;;;7.82;80.97
74045;BME280;62389;51.412;5.436;2023-05-16T05:07:07;101949.00;;;7.83;81.50
74045;BME280;62389;51.412;5.436;2023-05-16T05:09:33;101951.56;;;7.85;81.36
74045;BME280;62389;51.412;5.436;2023-05-16T05:11:58;101957.63;;;7.85;80.90
74045;BME280;62389;51.412;5.436;2023-05-16T05:14:23;101956.78;;;7.85;80.82
74045;BME280;62389;51.412;5.436;2023-05-16T05:16:49;101961.91;;;7.88;80.25
74045;BME280;62389;51.412;5.436;2023-05-16T05:19:14;101953.19;;;7.92;81.10
74045;BME280;62389;51.412;5.436;2023-05-16T05:21:40;101960.06;;;7.96;80.55
74045;BME280;62389;51.412;5.436;2023-05-16T05:24:05;101956.53;;;8.00;80.68
74045;BME280;62389;51.412;5.436;2023-05-16T05:26:30;101963.44;;;8.04;79.91
74045;BME280;62389;51.412;5.436;2023-05-16T05:28:56;101959.91;;;8.07;80.35
74045;BME280;62389;51.412;5.436;2023-05-16T05:31:21;101966.81;;;8.09;80.11
74045;BME280;62389;51.412;5.436;2023-05-16T05:33:47;101971.97;;;8.14;79.54
74045;BME280;62389;51.412;5.436;2023-05-16T05:36:12;101973.66;;;8.16;79.01
74045;BME280;62389;51.412;5.436;2023-05-16T05:38:37;101967.56;;;8.19;80.25
74045;BME280;62389;51.412;5.436;2023-05-16T05:41:04;101976.16;;;8.22;79.52
74045;BME280;62389;51.412;5.436;2023-05-16T05:43:29;101979.59;;;8.26;79.49
74045;BME280;62389;51.412;5.436;2023-05-16T05:45:55;101972.59;;;8.28;79.84
74045;BME280;62389;51.412;5.436;2023-05-16T05:48:20;101976.00;;;8.31;78.73
74045;BME280;62389;51.412;5.436;2023-05-16T05:50:46;101978.59;;;8.36;78.67
74045;BME280;62389;51.412;5.436;2023-05-16T05:53:11;101983.75;;;8.39;78.86
74045;BME280;62389;51.412;5.436;2023-05-16T05:55:37;101986.28;;;8.44;78.63
74045;BME280;62389;51.412;5.436;2023-05-16T05:58:02;101986.25;;;8.45;78.20
74045;BME280;62389;51.412;5.436;2023-05-16T06:00:27;101993.16;;;8.49;78.66
74045;BME280;62389;51.412;5.436;2023-05-16T06:02:53;101983.50;;;8.54;78.56
74045;BME280;62389;51.412;5.436;2023-05-16T06:05:19;101981.69;;;8.58;78.13
74045;BME280;62389;51.412;5.436;2023-05-16T06:07:44;101989.44;;;8.64;78.31
74045;BME280;62389;51.412;5.436;2023-05-16T06:10:10;101989.31;;;8.70;78.05
74045;BME280;62389;51.412;5.436;2023-05-16T06:12:35;101995.34;;;8.72;76.93
74045;BME280;62389;51.412;5.436;2023-05-16T06:15:00;102000.50;;;8.77;75.90
74045;BME280;62389;51.412;5.436;2023-05-16T06:17:26;102001.31;;;8.80;76.77
74045;BME280;62389;51.412;5.436;2023-05-16T06:19:51;102007.31;;;8.86;76.23
74045;BME280;62389;51.412;5.436;2023-05-16T06:22:16;102008.03;;;8.92;75.63
74045;BME280;62389;51.412;5.436;2023-05-16T06:24:42;102006.22;;;8.99;75.98
74045;BME280;62389;51.412;5.436;2023-05-16T06:27:07;102017.34;;;9.07;75.63
74045;BME280;62389;51.412;5.436;2023-05-16T06:29:33;102014.59;;;9.13;74.82
74045;BME280;62389;51.412;5.436;2023-05-16T06:31:58;102005.84;;;9.19;75.29
74045;BME280;62389;51.412;5.436;2023-05-16T06:34:23;102006.56;;;9.25;75.46
74045;BME280;62389;51.412;5.436;2023-05-16T06:36:55;102007.19;;;9.37;74.90
74045;BME280;62389;51.412;5.436;2023-05-16T06:39:20;102012.06;;;9.55;74.87
74045;BME280;62389;51.412;5.436;2023-05-16T06:41:46;102008.31;;;9.67;73.71
74045;BME280;62389;51.412;5.436;2023-05-16T06:44:11;102010.84;;;9.71;72.14
74045;BME280;62389;51.412;5.436;2023-05-16T06:46:37;102013.41;;;9.74;71.95
74045;BME280;62389;51.412;5.436;2023-05-16T06:49:02;102011.53;;;9.79;72.51
74045;BME280;62389;51.412;5.436;2023-05-16T06:51:28;102014.97;;;9.81;72.26
74045;BME280;62389;51.412;5.436;2023-05-16T06:53:55;102018.38;;;9.85;71.89
74045;BME280;62389;51.412;5.436;2023-05-16T06:56:20;102016.59;;;9.87;71.77
74045;BME280;62389;51.412;5.436;2023-05-16T06:58:45;102014.78;;;9.91;71.97
74045;BME280;62389;51.412;5.436;2023-05-16T07:01:11;102014.69;;;9.94;72.03
74045;BME280;62389;51.412;5.436;2023-05-16T07:03:36;102018.09;;;9.97;72.56
74045;BME280;62389;51.412;5.436;2023-05-16T07:06:02;102020.69;;;9.99;71.69
74045;BME280;62389;51.412;5.436;2023-05-16T07:08:27;102021.56;;;9.98;72.29
74045;BME280;62389;51.412;5.436;2023-05-16T07:10:52;102021.63;;;9.96;70.95
74045;BME280;62389;51.412;5.436;2023-05-16T07:13:18;102027.66;;;9.98;70.88
74045;BME280;62389;51.412;5.436;2023-05-16T07:15:43;102039.63;;;10.10;71.24
74045;BME280;62389;51.412;5.436;2023-05-16T07:18:09;102027.25;;;10.17;70.68
74045;BME280;62389;51.412;5.436;2023-05-16T07:20:34;102022.78;;;10.22;68.99
74045;BME280;62389;51.412;5.436;2023-05-16T07:23:00;102026.19;;;10.27;69.83
74045;BME280;62389;51.412;5.436;2023-05-16T07:25:25;102023.47;;;10.31;69.16
74045;BME280;62389;51.412;5.436;2023-05-16T07:27:50;102026.03;;;10.33;69.36
74045;BME280;62389;51.412;5.436;2023-05-16T07:30:16;102028.63;;;10.34;68.72
74045;BME280;62389;51.412;5.436;2023-05-16T07:32:41;102033.91;;;10.31;69.55
74045;BME280;62389;51.412;5.436;2023-05-16T07:35:08;102034.78;;;10.32;69.09
74045;BME280;62389;51.412;5.436;2023-05-16T07:37:34;102029.59;;;10.30;67.19
74045;BME280;62389;51.412;5.436;2023-05-16T07:40:00;102034.78;;;10.32;66.51
74045;BME280;62389;51.412;5.436;2023-05-16T07:42:25;102036.47;;;10.34;67.38
74045;BME280;62389;51.412;5.436;2023-05-16T07:44:51;102025.00;;;10.40;66.58
74045;BME280;62389;51.412;5.436;2023-05-16T07:47:16;102032.75;;;10.45;67.34
74045;BME280;62389;51.412;5.436;2023-05-16T07:49:42;102037.06;;;10.46;64.37
74045;BME280;62389;51.412;5.436;2023-05-16T07:52:07;102043.91;;;10.51;65.24
74045;BME280;62389;51.412;5.436;2023-05-16T07:54:33;102037.59;;;10.60;64.14
74045;BME280;62389;51.412;5.436;2023-05-16T07:56:59;102041.75;;;10.67;64.92
74045;BME280;62389;51.412;5.436;2023-05-16T07:59:25;102043.25;;;10.77;64.13
74045;BME280;62389;51.412;5.436;2023-05-16T08:01:50;102046.53;;;10.85;63.54
74045;BME280;62389;51.412;5.436;2023-05-16T08:04:16;102053.25;;;10.96;63.23
74045;BME280;62389;51.412;5.436;2023-05-16T08:06:41;102049.50;;;11.06;61.95
74045;BME280;62389;51.412;5.436;2023-05-16T08:09:06;102036.97;;;11.17;62.75
74045;BME280;62389;51.412;5.436;2023-05-16T08:11:33;102047.03;;;11.32;62.88
74045;BME280;62389;51.412;5.436;2023-05-16T08:13:59;102042.88;;;11.56;62.31
74045;BME280;62389;51.412;5.436;2023-05-16T08:16:24;102045.63;;;11.83;61.25
74045;BME280;62389;51.412;5.436;2023-05-16T08:18:49;102043.00;;;11.83;61.44
74045;BME280;62389;51.412;5.436;2023-05-16T08:21:15;102040.66;;;11.72;59.32
74045;BME280;62389;51.412;5.436;2023-05-16T08:23:40;102045.25;;;11.64;61.91
74045;BME280;62389;51.412;5.436;2023-05-16T08:26:06;102047.94;;;11.62;61.14
74045;BME280;62389;51.412;5.436;2023-05-16T08:28:32;102047.72;;;11.70;61.75
74045;BME280;62389;51.412;5.436;2023-05-16T08:30:57;102044.78;;;11.81;62.97
74045;BME280;62389;51.412;5.436;2023-05-16T08:33:23;102039.97;;;11.97;61.26
74045;BME280;62389;51.412;5.436;2023-05-16T08:35:50;102036.09;;;12.08;60.78
74045;BME280;62389;51.412;5.436;2023-05-16T08:38:17;102041.16;;;12.14;59.75
74045;BME280;62389;51.412;5.436;2023-05-16T08:40:42;102037.78;;;12.11;59.28
74045;BME280;62389;51.412;5.436;2023-05-16T08:43:08;102033.19;;;12.17;61.34
74045;BME280;62389;51.412;5.436;2023-05-16T08:45:33;102030.91;;;12.35;58.80
74045;BME280;62389;51.412;5.436;2023-05-16T08:48:00;102028.75;;;12.48;58.18
74045;BME280;62389;51.412;5.436;2023-05-16T08:50:29;102020.38;;;12.63;58.20
74045;BME280;62389;51.412;5.436;2023-05-16T08:52:55;102032.47;;;12.67;57.43
74045;BME280;62389;51.412;5.436;2023-05-16T08:55:21;102023.13;;;12.58;57.43
74045;BME280;62389;51.412;5.436;2023-05-16T08:57:49;102036.25;;;12.58;58.39
74045;BME280;62389;51.412;5.436;2023-05-16T09:00:18;102038.38;;;12.74;59.09
74045;BME280;62389;51.412;5.436;2023-05-16T09:02:44;102034.66;;;13.06;57.36
74045;BME280;62389;51.412;5.436;2023-05-16T09:05:14;102024.34;;;13.50;56.53
74045;BME280;62389;51.412;5.436;2023-05-16T09:07:41;102034.06;;;13.71;55.65
74045;BME280;62389;51.412;5.436;2023-05-16T09:10:06;102025.47;;;13.89;58.50
74045;BME280;62389;51.412;5.436;2023-05-16T09:12:35;102029.59;;;13.96;56.34
74045;BME280;62389;51.412;5.436;2023-05-16T09:15:03;102028.59;;;14.65;53.71
74045;BME280;62389;51.412;5.436;2023-05-16T09:20:17;102019.88;;;16.20;52.61
74045;BME280;62389;51.412;5.436;2023-05-16T09:22:51;102028.56;;;17.10;50.58
74045;BME280;62389;51.412;5.436;2023-05-16T09:25:17;102017.56;;;18.00;46.74
74045;BME280;62389;51.412;5.436;2023-05-16T09:27:45;102024.50;;;19.08;45.38
74045;BME280;62389;51.412;5.436;2023-05-16T09:30:13;102015.44;;;19.97;43.71
74045;BME280;62389;51.412;5.436;2023-05-16T09:32:42;102009.28;;;19.96;42.46
74045;BME280;62389;51.412;5.436;2023-05-16T09:35:14;102018.22;;;18.95;40.97
74045;BME280;62389;51.412;5.436;2023-05-16T09:37:46;102025.63;;;18.44;42.91
74045;BME280;62389;51.412;5.436;2023-05-16T09:40:12;102016.94;;;18.26;42.09
74045;BME280;62389;51.412;5.436;2023-05-16T09:42:37;102014.97;;;18.30;43.58
74045;BME280;62389;51.412;5.436;2023-05-16T09:45:03;102018.19;;;18.81;43.70
74045;BME280;62389;51.412;5.436;2023-05-16T09:47:29;102008.97;;;19.74;41.84
74045;BME280;62389;51.412;5.436;2023-05-16T09:49:55;102006.22;;;20.29;40.15
74045;BME280;62389;51.412;5.436;2023-05-16T09:52:20;102009.50;;;19.93;39.14
74045;BME280;62389;51.412;5.436;2023-05-16T09:54:46;102020.88;;;18.95;40.53
74045;BME280;62389;51.412;5.436;2023-05-16T09:57:21;102024.81;;;17.96;42.51
74045;BME280;62389;51.412;5.436;2023-05-16T09:59:47;102021.66;;;17.41;43.36
74045;BME280;62389;51.412;5.436;2023-05-16T10:02:14;102016.00;;;17.31;43.32
74045;BME280;62389;51.412;5.436;2023-05-16T10:04:40;102024.69;;;17.17;46.75
74045;BME280;62389;51.412;5.436;2023-05-16T10:07:06;102023.69;;;16.85;45.69
74045;BME280;62389;51.412;5.436;2023-05-16T10:09:34;102025.88;;;16.41;44.26
74045;BME280;62389;51.412;5.436;2023-05-16T10:12:01;102026.75;;;15.86;45.77
74045;BME280;62389;51.412;5.436;2023-05-16T10:14:29;102020.59;;;15.48;47.66
74045;BME280;62389;51.412;5.436;2023-05-16T10:16:58;102024.66;;;15.16;48.34
74045;BME280;62389;51.412;5.436;2023-05-16T10:19:25;102031.78;;;14.93;48.73
74045;BME280;62389;51.412;5.436;2023-05-16T10:21:53;102029.28;;;14.90;49.81
74045;BME280;62389;51.412;5.436;2023-05-16T10:24:28;102035.25;;;15.14;52.04
74045;BME280;62389;51.412;5.436;2023-05-16T10:26:55;102034.25;;;15.37;51.26
74045;BME280;62389;51.412;5.436;2023-05-16T10:29:21;102031.41;;;15.61;49.86
74045;BME280;62389;51.412;5.436;2023-05-16T10:31:47;102019.94;;;15.82;50.64
74045;BME280;62389;51.412;5.436;2023-05-16T10:34:15;102018.91;;;16.03;50.40
74045;BME280;62389;51.412;5.436;2023-05-16T10:36:41;102013.88;;;16.16;47.74
74045;BME280;62389;51.412;5.436;2023-05-16T10:39:07;102003.59;;;16.29;46.75
74045;BME280;62389;51.412;5.436;2023-05-16T10:41:33;102010.25;;;16.36;45.33
74045;BME280;62389;51.412;5.436;2023-05-16T10:43:59;102006.41;;;16.43;44.82
74045;BME280;62389;51.412;5.436;2023-05-16T10:46:26;102012.09;;;16.53;45.25
74045;BME280;62389;51.412;5.436;2023-05-16T10:48:53;102009.69;;;16.48;43.05
74045;BME280;62389;51.412;5.436;2023-05-16T10:53:50;102009.50;;;15.98;46.94
74045;BME280;62389;51.412;5.436;2023-05-16T10:56:25;102018.56;;;15.73;47.35
74045;BME280;62389;51.412;5.436;2023-05-16T10:58:52;102019.75;;;15.47;46.97
74045;BME280;62389;51.412;5.436;2023-05-16T11:01:25;102010.91;;;15.48;46.83
74045;BME280;62389;51.412;5.436;2023-05-16T11:06:27;102005.50;;;15.89;49.16
74045;BME280;62389;51.412;5.436;2023-05-16T11:17:14;102016.19;;;16.05;47.30
74045;BME280;62389;51.412;5.436;2023-05-16T11:19:50;102017.19;;;16.02;41.79
74045;BME280;62389;51.412;5.436;2023-05-16T11:24:49;102011.22;;;15.80;46.24
74045;BME280;62389;51.412;5.436;2023-05-16T11:27:36;102020.94;;;15.59;47.22
74045;BME280;62389;51.412;5.436;2023-05-16T11:32:35;102022.72;;;15.40;47.59
74045;BME280;62389;51.412;5.436;2023-05-16T11:35:01;102031.88;;;15.51;47.52
74045;BME280;62389;51.412;5.436;2023-05-16T11:37:27;102014.81;;;15.59;47.05
74045;BME280;62389;51.412;5.436;2023-05-16T11:39:58;102028.00;;;15.59;46.10
74045;BME280;62389;51.412;5.436;2023-05-16T11:42:23;102020.00;;;15.60;47.15
74045;BME280;62389;51.412;5.436;2023-05-16T11:45:02;102012.19;;;15.59;47.54
74045;BME280;62389;51.412;5.436;2023-05-16T11:47:29;102030.13;;;15.50;46.52
74045;BME280;62389;51.412;5.436;2023-05-16T11:49:57;102027.41;;;15.33;46.31
74045;BME280;62389;51.412;5.436;2023-05-16T11:52:22;102025.56;;;15.15;47.45
74045;BME280;62389;51.412;5.436;2023-05-16T11:54:48;102033.09;;;15.03;47.99
74045;BME280;62389;51.412;5.436;2023-05-16T11:57:14;102030.59;;;15.00;49.06
74045;BME280;62389;51.412;5.436;2023-05-16T11:59:40;102021.88;;;15.19;49.52
74045;BME280;62389;51.412;5.436;2023-05-16T12:02:06;102030.13;;;15.50;50.60
74045;BME280;62389;51.412;5.436;2023-05-16T12:04:34;102035.97;;;15.77;49.49
74045;BME280;62389;51.412;5.436;2023-05-16T12:07:00;102031.25;;;16.03;48.25
74045;BME280;62389;51.412;5.436;2023-05-16T12:09:26;102031.59;;;16.14;49.57
74045;BME280;62389;51.412;5.436;2023-05-16T12:11:51;102042.84;;;16.18;45.66
74045;BME280;62389;51.412;5.436;2023-05-16T12:14:17;102026.72;;;16.24;44.95
74045;BME280;62389;51.412;5.436;2023-05-16T12:16:43;102025.78;;;16.25;45.06
74045;BME280;62389;51.412;5.436;2023-05-16T12:19:11;102042.06;;;16.16;46.59
74045;BME280;62389;51.412;5.436;2023-05-16T12:21:37;102042.03;;;15.98;46.51
74045;BME280;62389;51.412;5.436;2023-05-16T12:24:03;102043.59;;;15.84;46.65
74045;BME280;62389;51.412;5.436;2023-05-16T12:26:32;102045.03;;;15.72;47.14
74045;BME280;62389;51.412;5.436;2023-05-16T12:29:01;102036.84;;;15.58;46.34
74045;BME280;62389;51.412;5.436;2023-05-16T12:31:30;102041.25;;;15.38;46.68
74045;BME280;62389;51.412;5.436;2023-05-16T12:33:56;102039.84;;;15.29;49.30
74045;BME280;62389;51.412;5.436;2023-05-16T12:36:22;102043.53;;;15.07;47.67
74045;BME280;62389;51.412;5.436;2023-05-16T12:38:48;102046.66;;;14.94;47.32
74045;BME280;62389;51.412;5.436;2023-05-16T12:41:21;102048.78;;;14.86;48.47
74045;BME280;62389;51.412;5.436;2023-05-16T12:43:49;102041.78;;;14.85;49.21
74045;BME280;62389;51.412;5.436;2023-05-16T12:46:15;102050.75;;;14.81;48.41
74045;BME280;62389;51.412;5.436;2023-05-16T12:48:41;102054.25;;;14.82;49.88
74045;BME280;62389;51.412;5.436;2023-05-16T12:51:15;102046.47;;;14.79;49.88
74045;BME280;62389;51.412;5.436;2023-05-16T12:53:46;102061.53;;;14.75;49.55
74045;BME280;62389;51.412;5.436;2023-05-16T12:56:12;102063.25;;;14.76;49.06
74045;BME280;62389;51.412;5.436;2023-05-16T12:58:38;102064.97;;;14.77;47.97
74045;BME280;62389;51.412;5.436;2023-05-16T13:01:04;102076.34;;;14.77;49.62
74045;BME280;62389;51.412;5.436;2023-05-16T13:03:31;102064.59;;;14.86;48.04
74045;BME280;62389;51.412;5.436;2023-05-16T13:05:57;102062.41;;;14.96;48.67
74045;BME280;62389;51.412;5.436;2023-05-16T13:08:23;102069.22;;;15.01;48.69
74045;BME280;62389;51.412;5.436;2023-05-16T13:10:48;102065.66;;;15.02;48.90
74045;BME280;62389;51.412;5.436;2023-05-16T13:13:14;102063.94;;;15.01;49.78
74045;BME280;62389;51.412;5.436;2023-05-16T13:15:41;102061.50;;;14.97;48.42
74045;BME280;62389;51.412;5.436;2023-05-16T13:18:07;102062.47;;;14.94;48.86